createdAt,value
2023-03-17T00:00:45.419Z,96548.00
2023-03-17T00:03:29.669Z,96546.00
2023-03-17T00:05:58.569Z,96545.00
2023-03-17T00:08:32.446Z,96535.00
2023-03-17T00:11:00.108Z,96539.00
2023-03-17T00:13:28.059Z,96532.00
2023-03-17T00:16:02.066Z,96522.00
2023-03-17T00:18:33.842Z,96525.00
2023-03-17T00:21:01.138Z,96533.00
2023-03-17T00:23:28.358Z,96534.00
2023-03-17T00:25:57.201Z,96532.00
2023-03-17T00:28:26.583Z,96533.00
2023-03-17T00:30:56.362Z,96539.00
2023-03-17T00:33:28.663Z,96534.00
2023-03-17T00:35:57.118Z,96528.00
2023-03-17T00:38:24.462Z,96531.00
2023-03-17T00:40:52.064Z,96526.00
2023-03-17T00:43:19.238Z,96524.00
2023-03-17T00:45:46.910Z,96530.00
2023-03-17T00:48:19.647Z,96520.00
2023-03-17T00:50:48.057Z,96530.00
2023-03-17T00:53:17.900Z,96527.00
2023-03-17T00:55:45.936Z,96525.00
2023-03-17T00:58:16.108Z,96525.00
2023-03-17T01:00:44.080Z,96519.00
2023-03-17T01:03:12.791Z,96539.00
2023-03-17T01:05:41.369Z,96552.00
2023-03-17T01:08:10.290Z,96559.00
2023-03-17T01:10:37.609Z,96557.00
2023-03-17T01:13:05.609Z,96536.00
2023-03-17T01:15:33.953Z,96538.00
2023-03-17T01:18:02.773Z,96537.00
2023-03-17T01:20:35.316Z,96537.00
2023-03-17T01:23:02.599Z,96542.00
2023-03-17T01:25:30.077Z,96527.00
2023-03-17T01:27:59.220Z,96530.00
2023-03-17T01:30:37.521Z,96532.00
2023-03-17T01:33:06.575Z,96525.00
2023-03-17T01:35:34.158Z,96517.00
2023-03-17T01:38:02.414Z,96516.00
2023-03-17T01:40:44.638Z,96516.00
2023-03-17T01:43:11.770Z,96513.00
2023-03-17T01:46:16.252Z,96514.00
2023-03-17T01:48:44.605Z,96522.00
2023-03-17T01:51:38.925Z,96514.00
2023-03-17T01:54:10.508Z,96506.00
2023-03-17T01:56:39.127Z,96503.00
2023-03-17T01:59:08.317Z,96506.00
2023-03-17T02:01:38.758Z,96513.00
2023-03-17T02:04:06.474Z,96514.00
2023-03-17T02:06:34.400Z,96512.00
2023-03-17T02:09:02.307Z,96505.00
2023-03-17T02:11:30.034Z,96496.00
2023-03-17T02:13:57.467Z,96500.00
2023-03-17T02:16:24.952Z,96492.00
2023-03-17T02:18:52.676Z,96492.00
2023-03-17T02:21:42.169Z,96485.00
2023-03-17T02:24:20.026Z,96497.00
2023-03-17T02:26:48.533Z,96502.00
2023-03-17T02:29:16.722Z,96503.00
2023-03-17T02:31:45.392Z,96494.00
2023-03-17T02:34:12.650Z,96492.00
2023-03-17T02:36:39.932Z,96498.00
2023-03-17T02:39:08.668Z,96497.00
2023-03-17T02:41:39.047Z,96487.00
2023-03-17T02:44:11.340Z,96485.00
2023-03-17T02:46:38.512Z,96480.00
2023-03-17T02:49:06.279Z,96468.00
2023-03-17T02:51:33.706Z,96470.00
2023-03-17T02:54:01.058Z,96474.00
2023-03-17T02:56:28.232Z,96470.00
2023-03-17T02:58:55.760Z,96466.00
2023-03-17T03:01:23.063Z,96467.00
2023-03-17T03:03:50.298Z,96466.00
2023-03-17T03:06:17.577Z,96466.00
2023-03-17T03:08:44.793Z,96460.00
2023-03-17T03:11:12.074Z,96466.00
2023-03-17T03:13:39.258Z,96459.00
2023-03-17T03:16:06.887Z,96458.00
2023-03-17T03:18:34.163Z,96464.00
2023-03-17T03:21:01.712Z,96452.00
2023-03-17T03:23:28.936Z,96449.00
2023-03-17T03:25:56.446Z,96450.00
2023-03-17T03:28:23.717Z,96453.00
2023-03-17T03:30:51.013Z,96445.00
2023-03-17T03:33:18.533Z,96453.00
2023-03-17T03:35:45.793Z,96454.00
2023-03-17T03:38:13.805Z,96456.00
2023-03-17T03:40:41.266Z,96462.00
2023-03-17T03:43:22.018Z,96453.00
2023-03-17T03:45:49.897Z,96448.00
2023-03-17T03:48:17.202Z,96450.00
2023-03-17T03:50:44.426Z,96453.00
2023-03-17T03:53:11.628Z,96448.00
2023-03-17T03:55:39.109Z,96451.00
2023-03-17T03:58:06.781Z,96448.00
2023-03-17T04:00:34.259Z,96460.00
2023-03-17T04:03:01.840Z,96455.00
2023-03-17T04:05:29.083Z,96449.00
2023-03-17T04:07:56.521Z,96461.00
2023-03-17T04:10:23.777Z,96453.00
2023-03-17T04:12:51.243Z,96454.00
2023-03-17T04:15:20.445Z,96462.00
2023-03-17T04:17:47.850Z,96452.00
2023-03-17T04:20:16.202Z,96456.00
2023-03-17T04:22:43.839Z,96450.00
2023-03-17T04:25:13.567Z,96446.00
2023-03-17T04:27:41.808Z,96454.00
2023-03-17T04:30:16.796Z,96456.00
2023-03-17T04:32:44.928Z,96452.00
2023-03-17T04:35:14.569Z,96458.00
2023-03-17T04:37:41.946Z,96455.00
2023-03-17T04:40:10.297Z,96447.00
2023-03-17T04:42:37.843Z,96442.00
2023-03-17T04:45:06.525Z,96451.00
2023-03-17T04:47:33.858Z,96447.00
2023-03-17T04:50:01.484Z,96450.00
2023-03-17T04:52:28.762Z,96451.00
2023-03-17T04:54:55.961Z,96444.00
2023-03-17T04:57:24.425Z,96445.00
2023-03-17T04:59:51.661Z,96447.00
2023-03-17T05:02:18.984Z,96449.00
2023-03-17T05:04:46.643Z,96450.00
2023-03-17T05:07:14.032Z,96451.00
2023-03-17T05:09:41.892Z,96451.00
2023-03-17T05:12:09.944Z,96459.00
2023-03-17T05:14:37.633Z,96451.00
2023-03-17T05:17:04.839Z,96454.00
2023-03-17T05:19:32.108Z,96451.00
2023-03-17T05:21:59.580Z,96446.00
2023-03-17T05:24:27.036Z,96449.00
2023-03-17T05:26:54.217Z,96441.00
2023-03-17T05:29:21.426Z,96450.00
2023-03-17T05:31:48.722Z,96452.00
2023-03-17T05:34:15.995Z,96455.00
2023-03-17T05:36:43.611Z,96448.00
2023-03-17T05:39:11.585Z,96454.00
2023-03-17T05:41:39.962Z,96456.00
2023-03-17T05:44:07.130Z,96448.00
2023-03-17T05:46:34.296Z,96461.00
2023-03-17T05:49:01.477Z,96460.00
2023-03-17T05:51:28.669Z,96455.00
2023-03-17T05:53:56.592Z,96446.00
2023-03-17T05:56:24.854Z,96451.00
2023-03-17T05:58:52.024Z,96446.00
2023-03-17T06:01:19.222Z,96445.00
2023-03-17T06:03:47.086Z,96452.00
2023-03-17T06:06:14.269Z,96449.00
2023-03-17T06:08:41.445Z,96451.00
2023-03-17T06:11:08.635Z,96453.00
2023-03-17T06:13:36.460Z,96458.00
2023-03-17T06:16:03.675Z,96461.00
2023-03-17T06:18:30.921Z,96458.00
2023-03-17T06:20:58.063Z,96459.00
2023-03-17T06:23:25.951Z,96461.00
2023-03-17T06:25:53.122Z,96469.00
2023-03-17T06:28:20.306Z,96464.00
2023-03-17T06:30:47.793Z,96464.00
2023-03-17T06:33:15.845Z,96480.00
2023-03-17T06:35:43.085Z,96480.00
2023-03-17T06:38:10.614Z,96474.00
2023-03-17T06:40:38.207Z,96483.00
2023-03-17T06:43:05.393Z,96472.00
2023-03-17T06:45:33.069Z,96472.00
2023-03-17T06:48:00.460Z,96474.00
2023-03-17T06:50:27.660Z,96473.00
2023-03-17T06:52:54.892Z,96472.00
2023-03-17T06:55:22.422Z,96463.00
2023-03-17T06:57:51.220Z,96459.00
2023-03-17T07:00:19.537Z,96467.00
2023-03-17T07:02:47.400Z,96480.00
2023-03-17T07:05:14.700Z,96472.00
2023-03-17T07:07:41.890Z,96477.00
2023-03-17T07:10:15.697Z,96476.00
2023-03-17T07:12:42.932Z,96477.00
2023-03-17T07:15:12.417Z,96488.00
2023-03-17T07:17:39.607Z,96477.00
2023-03-17T07:20:07.311Z,96476.00
2023-03-17T07:22:34.557Z,96475.00
2023-03-17T07:25:01.709Z,96487.00
2023-03-17T07:27:29.249Z,96472.00
2023-03-17T07:29:56.715Z,96475.00
2023-03-17T07:32:24.620Z,96479.00
2023-03-17T07:34:51.772Z,96486.00
2023-03-17T07:37:19.457Z,96486.00
2023-03-17T07:39:47.316Z,96478.00
2023-03-17T07:42:15.912Z,96479.00
2023-03-17T07:44:43.223Z,96468.00
2023-03-17T07:47:11.920Z,96474.00
2023-03-17T07:49:42.099Z,96473.00
2023-03-17T07:52:11.004Z,96474.00
2023-03-17T07:54:42.252Z,96466.00
2023-03-17T07:57:10.295Z,96463.00
2023-03-17T07:59:38.258Z,96469.00
2023-03-17T08:02:05.556Z,96468.00
2023-03-17T08:04:32.807Z,96468.00
2023-03-17T08:07:00.394Z,96470.00
2023-03-17T08:09:27.595Z,96458.00
2023-03-17T08:11:54.783Z,96470.00
2023-03-17T08:14:21.966Z,96455.00
2023-03-17T08:16:49.215Z,96465.00
2023-03-17T08:19:16.634Z,96467.00
2023-03-17T08:21:43.809Z,96458.00
2023-03-17T08:24:11.154Z,96452.00
2023-03-17T08:26:38.376Z,96463.00
2023-03-17T08:29:05.904Z,96459.00
2023-03-17T08:31:33.867Z,96457.00
2023-03-17T08:34:02.758Z,96460.00
2023-03-17T08:36:30.651Z,96461.00
2023-03-17T08:38:58.058Z,96460.00
2023-03-17T08:41:28.156Z,96462.00
2023-03-17T08:43:55.488Z,96456.00
2023-03-17T08:46:28.744Z,96470.00
2023-03-17T08:48:58.035Z,96464.00
2023-03-17T08:51:28.372Z,96462.00
2023-03-17T08:53:56.658Z,96468.00
2023-03-17T08:56:23.857Z,96467.00
2023-03-17T08:58:51.635Z,96466.00
2023-03-17T09:01:21.236Z,96456.00
2023-03-17T09:03:49.564Z,96443.00
2023-03-17T09:06:16.832Z,96453.00
2023-03-17T09:08:45.056Z,96429.00
2023-03-17T09:11:16.413Z,96437.00
2023-03-17T09:13:44.311Z,96432.00
2023-03-17T09:16:11.867Z,96433.00
2023-03-17T09:18:39.298Z,96442.00
2023-03-17T09:21:07.009Z,96433.00
2023-03-17T09:23:34.198Z,96435.00
2023-03-17T09:26:02.230Z,96436.00
2023-03-17T09:28:29.806Z,96442.00
2023-03-17T09:31:05.208Z,96436.00
2023-03-17T09:33:32.493Z,96434.00
2023-03-17T09:35:59.694Z,96432.00
2023-03-17T09:38:28.219Z,96433.00
2023-03-17T09:41:05.797Z,96434.00
2023-03-17T09:44:08.722Z,96426.00
2023-03-17T09:47:04.454Z,96425.00
2023-03-17T09:49:45.718Z,96433.00
2023-03-17T09:52:14.941Z,96422.00
2023-03-17T09:54:42.286Z,96426.00
2023-03-17T09:57:12.875Z,96428.00
2023-03-17T09:59:40.450Z,96424.00
2023-03-17T10:02:27.645Z,96424.00
2023-03-17T10:04:54.810Z,96424.00
2023-03-17T10:07:37.288Z,96428.00
2023-03-17T10:10:05.675Z,96420.00
2023-03-17T10:12:38.839Z,96426.00
2023-03-17T10:15:11.427Z,96424.00
2023-03-17T10:17:39.761Z,96422.00
2023-03-17T10:20:08.495Z,96419.00
2023-03-17T10:22:46.254Z,96413.00
2023-03-17T10:25:14.960Z,96410.00
2023-03-17T10:27:42.941Z,96420.00
2023-03-17T10:30:17.947Z,96410.00
2023-03-17T10:32:45.580Z,96407.00
2023-03-17T10:35:12.715Z,96411.00
2023-03-17T10:37:40.995Z,96404.00
2023-03-17T10:40:19.697Z,96399.00
2023-03-17T10:42:48.029Z,96406.00
2023-03-17T10:45:25.048Z,96399.00
2023-03-17T10:47:52.162Z,96404.00
2023-03-17T10:50:24.507Z,96403.00
2023-03-17T10:52:57.944Z,96397.00
2023-03-17T10:55:26.535Z,96400.00
2023-03-17T10:57:56.135Z,96396.00
2023-03-17T11:00:24.822Z,96394.00
2023-03-17T11:02:56.225Z,96400.00
2023-03-17T11:05:27.687Z,96401.00
2023-03-17T11:07:58.928Z,96395.00
2023-03-17T11:10:27.256Z,96392.00
2023-03-17T11:12:55.374Z,96389.00
2023-03-17T11:15:22.685Z,96386.00
2023-03-17T11:17:49.762Z,96381.00
2023-03-17T11:20:39.906Z,96381.00
2023-03-17T11:23:15.845Z,96377.00
2023-03-17T11:25:43.260Z,96373.00
2023-03-17T11:28:16.321Z,96374.00
2023-03-17T11:30:44.692Z,96381.00
2023-03-17T11:33:14.060Z,96368.00
2023-03-17T11:35:46.577Z,96373.00
2023-03-17T11:38:20.925Z,96375.00
2023-03-17T11:40:58.769Z,96375.00
2023-03-17T11:43:45.331Z,96373.00
2023-03-17T11:46:12.581Z,96380.00
2023-03-17T11:48:51.194Z,96369.00
2023-03-17T11:51:30.238Z,96373.00
2023-03-17T11:54:08.142Z,96372.00
2023-03-17T11:56:41.581Z,96374.00
2023-03-17T11:59:27.738Z,96369.00
2023-03-17T12:01:58.126Z,96373.00
2023-03-17T12:04:35.889Z,96383.00
2023-03-17T12:07:32.352Z,96385.00
2023-03-17T12:10:16.363Z,96385.00
2023-03-17T12:12:48.266Z,96376.00
2023-03-17T12:15:27.434Z,96368.00
2023-03-17T12:17:57.741Z,96372.00
2023-03-17T12:20:26.329Z,96368.00
2023-03-17T12:22:58.220Z,96369.00
2023-03-17T12:25:35.459Z,96366.00
2023-03-17T12:28:08.610Z,96370.00
2023-03-17T12:30:45.421Z,96372.00
2023-03-17T12:33:28.463Z,96377.00
2023-03-17T12:35:55.681Z,96379.00
2023-03-17T12:38:28.158Z,96368.00
2023-03-17T12:41:01.395Z,96370.00
2023-03-17T12:43:36.084Z,96364.00
2023-03-17T12:46:08.655Z,96373.00
2023-03-17T12:48:48.322Z,96366.00
2023-03-17T12:51:21.597Z,96365.00
2023-03-17T12:53:50.646Z,96366.00
2023-03-17T12:56:22.227Z,96365.00
2023-03-17T12:58:50.197Z,96368.00
2023-03-17T13:01:32.343Z,96361.00
2023-03-17T13:04:21.959Z,96357.00
2023-03-17T13:07:07.233Z,96357.00
2023-03-17T13:09:45.171Z,96362.00
2023-03-17T13:12:31.006Z,96352.00
2023-03-17T13:14:58.107Z,96367.00
2023-03-17T13:17:28.749Z,96360.00
2023-03-17T13:19:57.508Z,96360.00
2023-03-17T13:22:31.838Z,96349.00
2023-03-17T13:25:05.574Z,96350.00
2023-03-17T13:27:32.603Z,96342.00
2023-03-17T13:30:01.149Z,96361.00
2023-03-17T13:32:28.265Z,96350.00
2023-03-17T13:35:15.610Z,96341.00
2023-03-17T13:37:49.150Z,96351.00
2023-03-17T13:40:34.348Z,96347.00
2023-03-17T13:43:15.228Z,96347.00
2023-03-17T13:45:50.319Z,96345.00
2023-03-17T13:48:22.372Z,96350.00
2023-03-17T13:50:55.235Z,96351.00
2023-03-17T13:53:27.720Z,96343.00
2023-03-17T13:56:09.041Z,96334.00
2023-03-17T13:59:00.967Z,96343.00
2023-03-17T14:01:33.008Z,96334.00
2023-03-17T14:04:05.559Z,96342.00
2023-03-17T14:06:35.677Z,96342.00
2023-03-17T14:09:23.054Z,96333.00
2023-03-17T14:11:50.149Z,96344.00
2023-03-17T14:14:32.197Z,96344.00
2023-03-17T14:17:08.330Z,96348.00
2023-03-17T14:19:38.970Z,96345.00
2023-03-17T14:22:19.752Z,96345.00
2023-03-17T14:24:46.865Z,96347.00
2023-03-17T14:27:15.186Z,96349.00
2023-03-17T14:29:43.314Z,96339.00
2023-03-17T14:32:14.292Z,96339.00
2023-03-17T14:35:01.652Z,96341.00
2023-03-17T14:37:28.770Z,96345.00
2023-03-17T14:39:57.493Z,96343.00
2023-03-17T14:42:31.374Z,96346.00
2023-03-17T14:45:02.864Z,96347.00
2023-03-17T14:47:30.258Z,96346.00
2023-03-17T14:49:57.363Z,96355.00
2023-03-17T14:52:26.886Z,96350.00
2023-03-17T14:54:54.961Z,96349.00
2023-03-17T14:57:23.644Z,96347.00
2023-03-17T15:00:23.269Z,96347.00
2023-03-17T15:02:57.496Z,96338.00
2023-03-17T15:05:29.169Z,96339.00
2023-03-17T15:07:56.492Z,96335.00
2023-03-17T15:10:25.101Z,96335.00
2023-03-17T15:12:59.654Z,96332.00
2023-03-17T15:15:28.395Z,96342.00
2023-03-17T15:17:56.294Z,96325.00
2023-03-17T15:20:23.550Z,96330.00
2023-03-17T15:23:00.921Z,96319.00
2023-03-17T15:25:35.136Z,96328.00
2023-03-17T15:28:02.232Z,96328.00
2023-03-17T15:30:44.395Z,96325.00
2023-03-17T15:33:16.636Z,96330.00
2023-03-17T15:35:43.828Z,96334.00
2023-03-17T15:38:11.457Z,96334.00
2023-03-17T15:40:38.548Z,96333.00
2023-03-17T15:43:05.906Z,96332.00
2023-03-17T15:45:32.982Z,96337.00
2023-03-17T15:48:00.145Z,96335.00
2023-03-17T15:50:31.176Z,96336.00
2023-03-17T15:52:58.682Z,96330.00
2023-03-17T15:55:29.423Z,96338.00
2023-03-17T15:57:57.215Z,96332.00
2023-03-17T16:00:26.489Z,96333.00
2023-03-17T16:02:54.113Z,96327.00
2023-03-17T16:05:22.718Z,96330.00
2023-03-17T16:07:49.884Z,96337.00
2023-03-17T16:10:24.244Z,96331.00
2023-03-17T16:12:51.488Z,96341.00
2023-03-17T16:15:26.016Z,96333.00
2023-03-17T16:17:59.149Z,96327.00
2023-03-17T16:20:39.416Z,96332.00
2023-03-17T16:23:08.134Z,96328.00
2023-03-17T16:25:36.732Z,96333.00
2023-03-17T16:28:07.459Z,96338.00
2023-03-17T16:30:34.900Z,96345.00
2023-03-17T16:33:03.125Z,96337.00
2023-03-17T16:35:30.335Z,96338.00
2023-03-17T16:37:57.500Z,96339.00
2023-03-17T16:40:25.845Z,96334.00
2023-03-17T16:42:53.194Z,96328.00
2023-03-17T16:45:22.016Z,96338.00
2023-03-17T16:47:49.702Z,96333.00
2023-03-17T16:50:18.483Z,96332.00
2023-03-17T16:52:45.673Z,96331.00
2023-03-17T16:55:13.585Z,96333.00
2023-03-17T16:57:41.083Z,96346.00
2023-03-17T17:00:08.846Z,96348.00
2023-03-17T17:02:36.203Z,96353.00
2023-03-17T17:05:05.703Z,96354.00
2023-03-17T17:07:32.833Z,96346.00
2023-03-17T17:09:59.942Z,96352.00
2023-03-17T17:12:27.018Z,96360.00
2023-03-17T17:14:54.134Z,96365.00
2023-03-17T17:17:21.208Z,96373.00
2023-03-17T17:19:48.325Z,96375.00
2023-03-17T17:22:15.428Z,96367.00
2023-03-17T17:24:42.754Z,96371.00
2023-03-17T17:27:09.818Z,96368.00
2023-03-17T17:29:36.931Z,96374.00
2023-03-17T17:32:05.252Z,96383.00
2023-03-17T17:34:32.382Z,96388.00
2023-03-17T17:36:59.491Z,96389.00
2023-03-17T17:39:26.706Z,96399.00
2023-03-17T17:41:53.808Z,96409.00
2023-03-17T17:44:20.926Z,96412.00
2023-03-17T17:46:48.066Z,96414.00
2023-03-17T17:49:15.183Z,96420.00
2023-03-17T17:51:42.259Z,96421.00
2023-03-17T17:54:10.171Z,96419.00
2023-03-17T17:56:40.090Z,96425.00
2023-03-17T17:59:08.045Z,96428.00
2023-03-17T18:01:35.200Z,96419.00
2023-03-17T18:04:02.380Z,96418.00
2023-03-17T18:06:29.450Z,96424.00
2023-03-17T18:08:56.631Z,96421.00
2023-03-17T18:11:23.754Z,96406.00
2023-03-17T18:13:51.161Z,96419.00
2023-03-17T18:16:18.979Z,96423.00
2023-03-17T18:18:47.034Z,96419.00
2023-03-17T18:21:14.227Z,96419.00
2023-03-17T18:23:46.830Z,96422.00
2023-03-17T18:26:15.014Z,96414.00
2023-03-17T18:28:42.415Z,96414.00
2023-03-17T18:31:10.486Z,96418.00
2023-03-17T18:33:38.259Z,96423.00
2023-03-17T18:36:08.830Z,96427.00
2023-03-17T18:38:35.976Z,96424.00
2023-03-17T18:41:03.051Z,96432.00
2023-03-17T18:43:30.153Z,96431.00
2023-03-17T18:45:57.298Z,96436.00
2023-03-17T18:48:24.409Z,96428.00
2023-03-17T18:50:51.610Z,96429.00
2023-03-17T18:53:18.988Z,96425.00
2023-03-17T18:55:46.940Z,96427.00
2023-03-17T18:58:14.086Z,96431.00
2023-03-17T19:00:41.261Z,96434.00
2023-03-17T19:03:08.458Z,96432.00
2023-03-17T19:05:37.571Z,96432.00
2023-03-17T19:08:04.712Z,96431.00
2023-03-17T19:10:32.006Z,96434.00
2023-03-17T19:12:59.807Z,96417.00
2023-03-17T19:15:26.912Z,96427.00
2023-03-17T19:17:54.057Z,96425.00
2023-03-17T19:20:21.190Z,96432.00
2023-03-17T19:22:48.444Z,96432.00
2023-03-17T19:25:16.606Z,96434.00
2023-03-17T19:27:43.891Z,96430.00
2023-03-17T19:30:11.373Z,96425.00
2023-03-17T19:32:38.496Z,96432.00
2023-03-17T19:35:07.444Z,96428.00
2023-03-17T19:37:34.596Z,96431.00
2023-03-17T19:40:01.818Z,96427.00
2023-03-17T19:42:28.950Z,96423.00
2023-03-17T19:44:56.231Z,96427.00
2023-03-17T19:47:23.403Z,96440.00
2023-03-17T19:49:50.936Z,96441.00
2023-03-17T19:52:18.740Z,96437.00
2023-03-17T19:54:46.034Z,96433.00
2023-03-17T19:57:13.347Z,96432.00
2023-03-17T19:59:40.828Z,96435.00
2023-03-17T20:02:08.178Z,96438.00
2023-03-17T20:04:36.590Z,96438.00
2023-03-17T20:07:03.809Z,96438.00
2023-03-17T20:09:31.733Z,96455.00
2023-03-17T20:11:59.004Z,96460.00
2023-03-17T20:14:26.253Z,96460.00
2023-03-17T20:16:53.613Z,96455.00
2023-03-17T20:19:21.305Z,96455.00
2023-03-17T20:21:48.371Z,96458.00
2023-03-17T20:24:15.470Z,96472.00
2023-03-17T20:26:43.302Z,96472.00
2023-03-17T20:29:12.611Z,96469.00
2023-03-17T20:31:39.883Z,96472.00
2023-03-17T20:34:07.819Z,96475.00
2023-03-17T20:36:34.949Z,96475.00
2023-03-17T20:39:02.082Z,96478.00
2023-03-17T20:41:29.443Z,96477.00
2023-03-17T20:43:56.529Z,96480.00
2023-03-17T20:46:24.297Z,96480.00
2023-03-17T20:49:01.050Z,96477.00
2023-03-17T20:51:28.179Z,96479.00
2023-03-17T20:53:56.773Z,96486.00
2023-03-17T20:56:24.653Z,96478.00
2023-03-17T20:58:53.122Z,96485.00
2023-03-17T21:01:21.447Z,96491.00
2023-03-17T21:03:48.891Z,96495.00
2023-03-17T21:06:16.354Z,96496.00
2023-03-17T21:08:43.930Z,96505.00
2023-03-17T21:11:11.751Z,96500.00
2023-03-17T21:13:38.861Z,96507.00
2023-03-17T21:16:06.178Z,96501.00
2023-03-17T21:18:33.289Z,96504.00
2023-03-17T21:21:00.663Z,96519.00
2023-03-17T21:23:28.435Z,96523.00
2023-03-17T21:25:56.023Z,96515.00
2023-03-17T21:28:23.419Z,96522.00
2023-03-17T21:30:50.730Z,96513.00
2023-03-17T21:33:17.907Z,96520.00
2023-03-17T21:35:45.133Z,96526.00
2023-03-17T21:38:12.348Z,96518.00
2023-03-17T21:40:39.432Z,96511.00
2023-03-17T21:43:06.557Z,96514.00
2023-03-17T21:45:33.756Z,96521.00
2023-03-17T21:48:00.883Z,96519.00
2023-03-17T21:50:28.213Z,96506.00
2023-03-17T21:52:55.334Z,96519.00
2023-03-17T21:55:22.446Z,96514.00
2023-03-17T21:57:49.574Z,96525.00
2023-03-17T22:00:17.288Z,96528.00
2023-03-17T22:02:44.937Z,96528.00
2023-03-17T22:05:12.074Z,96533.00
2023-03-17T22:07:40.896Z,96521.00
2023-03-17T22:10:08.266Z,96530.00
2023-03-17T22:12:35.835Z,96533.00
2023-03-17T22:15:04.088Z,96530.00
2023-03-17T22:17:31.405Z,96529.00
2023-03-17T22:19:58.531Z,96535.00
2023-03-17T22:22:25.722Z,96539.00
2023-03-17T22:24:52.864Z,96536.00
2023-03-17T22:27:19.986Z,96539.00
2023-03-17T22:29:47.414Z,96540.00
2023-03-17T22:32:14.527Z,96538.00
2023-03-17T22:34:41.628Z,96541.00
2023-03-17T22:37:08.720Z,96549.00
2023-03-17T22:39:35.928Z,96553.00
2023-03-17T22:42:03.138Z,96548.00
2023-03-17T22:44:30.703Z,96555.00
2023-03-17T22:46:57.847Z,96551.00
2023-03-17T22:49:24.977Z,96547.00
2023-03-17T22:51:52.147Z,96551.00
2023-03-17T22:54:19.280Z,96548.00
2023-03-17T22:56:46.403Z,96549.00
2023-03-17T22:59:13.524Z,96550.00
2023-03-17T23:01:40.758Z,96552.00
2023-03-17T23:04:08.042Z,96549.00
2023-03-17T23:06:35.567Z,96551.00
2023-03-17T23:09:02.761Z,96554.00
2023-03-17T23:11:29.885Z,96551.00
2023-03-17T23:13:57.352Z,96555.00
2023-03-17T23:16:24.787Z,96554.00
2023-03-17T23:18:52.572Z,96561.00
2023-03-17T23:21:30.085Z,96555.00
2023-03-17T23:23:57.481Z,96558.00
2023-03-17T23:26:24.588Z,96560.00
2023-03-17T23:28:51.824Z,96561.00
2023-03-17T23:31:20.449Z,96567.00
2023-03-17T23:33:48.317Z,96561.00
2023-03-17T23:36:16.171Z,96558.00
2023-03-17T23:38:44.034Z,96563.00
2023-03-17T23:41:12.725Z,96563.00
2023-03-17T23:43:39.997Z,96573.00
2023-03-17T23:46:07.092Z,96582.00
2023-03-17T23:48:34.262Z,96585.00
2023-03-17T23:51:01.597Z,96577.00
2023-03-17T23:53:28.759Z,96588.00
2023-03-17T23:55:55.912Z,96582.00
2023-03-17T23:58:23.086Z,96577.00
